RJOO/ITM METAR and TAF weather

Enter ICAO airport designator
Station Type Date Time Source
RJOO METAR 2019/08/22 11:00 UTC NOAA

RJOO 221100Z 23006KT 130V290 9999 FEW020 SCT110 BKN/// 29/24 Q1008


Station Type Date Time Source
RJOO Decoded METAR 2019/08/22 11:00 UTC NOAA

Station name not available
Aug 22, 2019 - 07:00 AM EDT / 2019.08.22 1100 UTC
Wind: from the SW (230 degrees) at 7 MPH (6 KT) (direction variable):0
Visibility: greater than 7 mile(s):0
Sky conditions: mostly cloudy
Temperature: 84 F (29 C)
Dew Point: 75 F (24 C)
Relative Humidity: 74%
Pressure (altimeter): 29.77 in. Hg (1008 hPa)
ob: RJOO 221100Z 23006KT 130V290 9999 FEW020 SCT110 BKN/// 29/24 Q1008
cycle: 11

Station Type Date Time Source
RJOO TAF 2019/08/22 12:30 UTC NOAA

TAF RJOO 221108Z 2212/2318 26005KT 7000 -SHRA FEW008 SCT015 BKN025
TEMPO 2218/2300 3000 TSRA BR FEW005 SCT010 BKN020 FEW020CB
BECMG 2303/2306 22010KT
BECMG 2309/2312 26005KT

Example: see airport list